Wetterdaten: Woche 10.10.11 - 16.10.11 (KW41)
Datum Zeit Temp. Auen Feucht Auen Luftdruck Regen Richtung Windben
10.10.2011 00:00 -0,3 C 97 % 1095,0 hPa 0,0 mm W 2,7 km/h (1 Bft)
10.10.2011 01:00 -0,2 C 100 % 1094,4 hPa 0,0 mm W 2,1 km/h (1 Bft)
10.10.2011 02:00 0,5 C 99 % 1093,8 hPa 0,0 mm W-SW 2,7 km/h (1 Bft)
10.10.2011 03:00 1,2 C 99 % 1092,8 hPa 0,0 mm W 2,8 km/h (1 Bft)
10.10.2011 04:00 2,1 C 99 % 1091,6 hPa 0,0 mm W 3,2 km/h (1 Bft)
10.10.2011 05:00 2,8 C 99 % 1090,9 hPa 0,0 mm W 2,5 km/h (1 Bft)
10.10.2011 06:00 3,8 C 99 % 1090,3 hPa 0,3 mm W-SW 5,2 km/h (1 Bft)
10.10.2011 07:00 4,5 C 99 % 1089,6 hPa 0,3 mm W 5,3 km/h (1 Bft)
10.10.2011 08:00 4,9 C 99 % 1089,5 hPa 1,8 mm W 5,8 km/h (2 Bft)
10.10.2011 09:00 5,2 C 99 % 1089,6 hPa 3,0 mm W 3,7 km/h (1 Bft)
10.10.2011 10:00 5,7 C 99 % 1089,8 hPa 3,6 mm N 2,5 km/h (1 Bft)
10.10.2011 11:00 6,0 C 99 % 1090,0 hPa 4,2 mm O-NO 3,2 km/h (1 Bft)
10.10.2011 12:00 6,5 C 99 % 1089,7 hPa 4,2 mm O-NO 2,9 km/h (1 Bft)
10.10.2011 13:00 7,0 C 99 % 1089,1 hPa 3,0 mm N 1,7 km/h (1 Bft)
10.10.2011 14:00 8,1 C 99 % 1088,4 hPa 3,9 mm W 2,1 km/h (1 Bft)
10.10.2011 15:00 9,8 C 99 % 1088,0 hPa 0,6 mm O 3,9 km/h (1 Bft)
10.10.2011 16:00 11,3 C 99 % 1087,9 hPa 0,9 mm W 8,7 km/h (2 Bft)
10.10.2011 17:00 12,4 C 99 % 1087,8 hPa 0,9 mm W 6,9 km/h (2 Bft)
10.10.2011 18:00 12,3 C 99 % 1087,8 hPa 0,0 mm W 3,4 km/h (1 Bft)
10.10.2011 19:00 12,0 C 99 % 1088,3 hPa 0,0 mm W 4,1 km/h (1 Bft)
10.10.2011 20:00 11,9 C 99 % 1088,4 hPa 0,0 mm W 2,9 km/h (1 Bft)
10.10.2011 21:00 12,3 C 99 % 1088,5 hPa 0,3 mm W 3,9 km/h (1 Bft)
10.10.2011 22:00 12,5 C 99 % 1088,7 hPa 0,3 mm W 3,5 km/h (1 Bft)
10.10.2011 23:00 12,4 C 99 % 1088,8 hPa 0,3 mm W 2,5 km/h (1 Bft)
11.10.2011 00:00 12,3 C 99 % 1089,2 hPa 0,0 mm N 1,2 km/h (1 Bft)
11.10.2011 01:00 12,2 C 99 % 1089,6 hPa 0,0 mm W 1,6 km/h (1 Bft)
11.10.2011 02:00 12,2 C 99 % 1090,2 hPa 0,0 mm W 1,9 km/h (1 Bft)
11.10.2011 03:00 12,1 C 99 % 1090,1 hPa 0,0 mm W 4,7 km/h (1 Bft)
11.10.2011 04:00 12,6 C 99 % 1089,3 hPa 0,3 mm W 10,5 km/h (2 Bft)
11.10.2011 05:00 12,7 C 99 % 1089,0 hPa 0,0 mm W 13,0 km/h (3 Bft)
11.10.2011 06:00 12,6 C 99 % 1089,4 hPa 0,0 mm W 7,1 km/h (2 Bft)
11.10.2011 07:00 12,5 C 99 % 1089,5 hPa 0,3 mm W 4,9 km/h (1 Bft)
11.10.2011 08:00 12,5 C 99 % 1089,8 hPa 0,0 mm W 4,3 km/h (1 Bft)
11.10.2011 09:00 12,9 C 99 % 1090,0 hPa 0,0 mm W 4,8 km/h (1 Bft)
11.10.2011 10:00 13,8 C 99 % 1089,7 hPa 0,0 mm W 5,0 km/h (1 Bft)
11.10.2011 11:00 15,8 C 96 % 1089,4 hPa 0,0 mm W-SW 9,8 km/h (2 Bft)
11.10.2011 12:00 18,1 C 84 % 1087,9 hPa 0,0 mm W 10,7 km/h (2 Bft)
11.10.2011 13:00 20,3 C 70 % 1086,3 hPa 0,0 mm W-SW 12,6 km/h (3 Bft)
11.10.2011 14:00 20,5 C 63 % 1085,5 hPa 0,0 mm W 13,1 km/h (3 Bft)
11.10.2011 15:00 20,2 C 62 % 1084,9 hPa 0,0 mm W-SW 13,8 km/h (3 Bft)
11.10.2011 16:00 19,9 C 64 % 1084,6 hPa 0,0 mm W 8,1 km/h (2 Bft)
11.10.2011 17:00 19,1 C 63 % 1084,6 hPa 0,0 mm W-SW 6,5 km/h (2 Bft)
11.10.2011 18:00 15,6 C 75 % 1085,5 hPa 0,0 mm N 1,4 km/h (1 Bft)
11.10.2011 19:00 11,8 C 86 % 1086,7 hPa 0,0 mm SW 2,9 km/h (1 Bft)
11.10.2011 20:00 10,5 C 92 % 1087,5 hPa 0,0 mm SW 4,2 km/h (1 Bft)
11.10.2011 21:00 9,8 C 95 % 1087,8 hPa 0,0 mm W 2,4 km/h (1 Bft)
11.10.2011 22:00 9,4 C 96 % 1088,3 hPa 0,0 mm N 1,1 km/h (1 Bft)
11.10.2011 23:00 11,7 C 94 % 1088,2 hPa 0,0 mm W 6,6 km/h (2 Bft)
12.10.2011 00:00 12,6 C 95 % 1088,2 hPa 0,0 mm W 7,6 km/h (2 Bft)
12.10.2011 01:00 13,1 C 95 % 1088,4 hPa 0,0 mm W 12,7 km/h (3 Bft)
12.10.2011 02:00 13,0 C 94 % 1088,3 hPa 0,0 mm W 14,0 km/h (3 Bft)
12.10.2011 03:00 12,9 C 94 % 1088,1 hPa 0,3 mm W 13,4 km/h (3 Bft)
12.10.2011 04:00 12,3 C 96 % 1087,9 hPa 0,3 mm W 17,6 km/h (3 Bft)
12.10.2011 05:00 12,5 C 92 % 1087,8 hPa 0,0 mm W 19,7 km/h (3 Bft)
12.10.2011 06:00 12,7 C 87 % 1087,9 hPa 0,0 mm W 19,0 km/h (3 Bft)
12.10.2011 07:00 12,9 C 84 % 1087,7 hPa 0,0 mm W 20,6 km/h (4 Bft)
12.10.2011 08:00 13,0 C 82 % 1088,0 hPa 0,0 mm W 22,5 km/h (4 Bft)
12.10.2011 09:00 13,3 C 80 % 1088,1 hPa 0,0 mm W 22,4 km/h (4 Bft)
12.10.2011 10:00 14,0 C 75 % 1088,2 hPa 0,0 mm W 25,5 km/h (4 Bft)
12.10.2011 11:00 14,9 C 70 % 1087,9 hPa 0,0 mm W 28,2 km/h (4 Bft)
12.10.2011 12:00 16,9 C 64 % 1087,3 hPa 0,0 mm W 26,5 km/h (4 Bft)
12.10.2011 13:00 14,8 C 68 % 1087,5 hPa 0,0 mm W 24,5 km/h (4 Bft)
12.10.2011 14:00 15,2 C 66 % 1086,8 hPa 0,0 mm W 26,9 km/h (4 Bft)
12.10.2011 15:00 15,2 C 67 % 1086,5 hPa 0,0 mm W 25,6 km/h (4 Bft)
12.10.2011 16:00 15,2 C 67 % 1086,3 hPa 0,0 mm W 21,2 km/h (4 Bft)
12.10.2011 17:00 14,3 C 69 % 1086,6 hPa 0,0 mm W 21,3 km/h (4 Bft)
12.10.2011 18:00 13,3 C 75 % 1087,2 hPa 0,3 mm W 18,9 km/h (3 Bft)
12.10.2011 19:00 11,9 C 86 % 1087,9 hPa 0,3 mm W 9,1 km/h (2 Bft)
12.10.2011 20:00 12,6 C 82 % 1087,9 hPa 0,0 mm W 14,3 km/h (3 Bft)
12.10.2011 21:00 12,8 C 80 % 1087,8 hPa 0,0 mm W 13,3 km/h (3 Bft)
12.10.2011 22:00 12,9 C 78 % 1087,9 hPa 0,0 mm W 14,0 km/h (3 Bft)
12.10.2011 23:00 13,0 C 76 % 1087,8 hPa 0,0 mm W 16,9 km/h (3 Bft)
13.10.2011 00:00 12,5 C 81 % 1088,0 hPa 1,8 mm W 19,6 km/h (3 Bft)
13.10.2011 01:00 11,1 C 93 % 1088,6 hPa 1,8 mm W 10,2 km/h (2 Bft)
13.10.2011 02:00 11,1 C 95 % 1088,7 hPa 0,3 mm W 8,3 km/h (2 Bft)
13.10.2011 03:00 11,1 C 96 % 1088,6 hPa 0,6 mm W 10,6 km/h (2 Bft)
13.10.2011 04:00 10,9 C 98 % 1088,7 hPa 2,1 mm W 13,7 km/h (3 Bft)
13.10.2011 05:00 10,8 C 99 % 1089,0 hPa 1,2 mm W 11,9 km/h (2 Bft)
13.10.2011 06:00 10,6 C 99 % 1089,5 hPa 1,8 mm W 11,0 km/h (2 Bft)
13.10.2011 07:00 10,5 C 99 % 1090,0 hPa 2,7 mm W 11,1 km/h (2 Bft)
13.10.2011 08:00 9,9 C 99 % 1091,0 hPa 1,5 mm W 7,3 km/h (2 Bft)
13.10.2011 09:00 8,7 C 99 % 1092,7 hPa 1,8 mm O 9,8 km/h (2 Bft)
13.10.2011 10:00 8,2 C 99 % 1093,7 hPa 0,9 mm O 8,2 km/h (2 Bft)
13.10.2011 11:00 8,0 C 99 % 1094,5 hPa 0,6 mm SO 8,3 km/h (2 Bft)
13.10.2011 12:00 8,4 C 99 % 1094,9 hPa 0,3 mm SO 7,8 km/h (2 Bft)
13.10.2011 13:00 9,1 C 95 % 1094,9 hPa 0,0 mm SO 5,5 km/h (1 Bft)
13.10.2011 14:00 9,8 C 94 % 1095,2 hPa 0,0 mm W 5,7 km/h (1 Bft)
13.10.2011 15:00 10,9 C 89 % 1095,2 hPa 0,0 mm W 6,9 km/h (2 Bft)
13.10.2011 16:00 11,3 C 81 % 1095,1 hPa 0,0 mm W 9,9 km/h (2 Bft)
13.10.2011 17:00 10,3 C 81 % 1095,7 hPa 0,0 mm W-NW 5,2 km/h (1 Bft)
13.10.2011 18:00 9,2 C 86 % 1096,6 hPa 0,0 mm W 3,8 km/h (1 Bft)
13.10.2011 19:00 8,0 C 91 % 1097,4 hPa 0,0 mm N 1,7 km/h (1 Bft)
13.10.2011 20:00 7,2 C 95 % 1098,1 hPa 0,0 mm N 2,0 km/h (1 Bft)
13.10.2011 21:00 6,8 C 99 % 1098,7 hPa 0,0 mm SW 3,3 km/h (1 Bft)
13.10.2011 22:00 6,4 C 99 % 1099,3 hPa 0,0 mm SW 2,7 km/h (1 Bft)
13.10.2011 23:00 5,5 C 100 % 1099,7 hPa 0,0 mm W 2,8 km/h (1 Bft)
14.10.2011 00:00 5,2 C 99 % 1099,7 hPa 0,0 mm W 2,2 km/h (1 Bft)
14.10.2011 01:00 4,4 C 99 % 1099,5 hPa 0,0 mm NW 2,0 km/h (1 Bft)
14.10.2011 02:00 3,6 C 99 % 1099,6 hPa 0,0 mm W 3,0 km/h (1 Bft)
14.10.2011 03:00 3,8 C 99 % 1099,4 hPa 0,0 mm SW 2,2 km/h (1 Bft)
14.10.2011 04:00 3,1 C 99 % 1099,5 hPa 0,0 mm SW 1,7 km/h (1 Bft)
14.10.2011 05:00 1,8 C 99 % 1100,0 hPa 0,0 mm SW 1,9 km/h (1 Bft)
14.10.2011 06:00 1,0 C 99 % 1100,3 hPa 0,0 mm SW 2,0 km/h (1 Bft)
14.10.2011 07:00 0,9 C 99 % 1100,7 hPa 0,0 mm SW 0,6 km/h (0 Bft)
14.10.2011 08:00 2,6 C 99 % 1100,8 hPa 0,0 mm SW 3,0 km/h (1 Bft)
14.10.2011 09:00 3,9 C 99 % 1100,9 hPa 0,0 mm S-SO 5,9 km/h (2 Bft)
14.10.2011 10:00 6,2 C 98 % 1100,9 hPa 0,0 mm O 8,8 km/h (2 Bft)
14.10.2011 11:00 9,7 C 81 % 1099,4 hPa 0,0 mm O-NO 10,7 km/h (2 Bft)
14.10.2011 12:00 10,5 C 72 % 1099,2 hPa 0,0 mm O-SO 12,2 km/h (2 Bft)
14.10.2011 13:00 11,0 C 69 % 1099,1 hPa 0,0 mm O-NO 14,1 km/h (3 Bft)
14.10.2011 14:00 10,6 C 67 % 1098,9 hPa 0,0 mm O-NO 14,5 km/h (3 Bft)
14.10.2011 15:00 9,9 C 66 % 1099,1 hPa 0,0 mm O-NO 14,5 km/h (3 Bft)
14.10.2011 16:00 9,0 C 65 % 1099,6 hPa 0,0 mm NO 13,8 km/h (3 Bft)
14.10.2011 17:00 7,5 C 69 % 1100,3 hPa 0,0 mm O-SO 11,2 km/h (2 Bft)
14.10.2011 18:00 5,2 C 77 % 1101,5 hPa 0,0 mm SO 7,9 km/h (2 Bft)
14.10.2011 19:00 3,3 C 80 % 1102,5 hPa 0,0 mm SO 3,4 km/h (1 Bft)
14.10.2011 20:00 2,6 C 83 % 1102,8 hPa 0,0 mm SO 5,1 km/h (1 Bft)
14.10.2011 21:00 2,4 C 85 % 1102,9 hPa 0,0 mm NO 8,4 km/h (2 Bft)
14.10.2011 22:00 2,0 C 86 % 1103,2 hPa 0,0 mm O-SO 6,7 km/h (2 Bft)
14.10.2011 23:00 1,4 C 87 % 1103,4 hPa 0,0 mm S 4,6 km/h (1 Bft)
15.10.2011 00:00 0,6 C 91 % 1103,2 hPa 0,0 mm SO 4,5 km/h (1 Bft)
15.10.2011 01:00 -0,1 C 93 % 1103,0 hPa 0,0 mm NO 4,4 km/h (1 Bft)
15.10.2011 02:00 0,3 C 96 % 1102,5 hPa 0,0 mm SO 5,7 km/h (1 Bft)
15.10.2011 03:00 0,1 C 96 % 1102,0 hPa 0,0 mm N-NO 3,8 km/h (1 Bft)
15.10.2011 04:00 0,4 C 97 % 1101,5 hPa 0,0 mm SO 7,2 km/h (2 Bft)
15.10.2011 05:00 0,7 C 99 % 1101,4 hPa 0,0 mm SO 8,9 km/h (2 Bft)
15.10.2011 06:00 0,2 C 98 % 1101,4 hPa 0,0 mm SO 8,0 km/h (2 Bft)
15.10.2011 07:00 -0,1 C 100 % 1101,2 hPa 0,0 mm SO 5,6 km/h (1 Bft)
15.10.2011 08:00 0,7 C 99 % 1101,2 hPa 0,0 mm SO 6,5 km/h (2 Bft)
15.10.2011 09:00 3,5 C 90 % 1100,4 hPa 0,0 mm O 12,3 km/h (3 Bft)
15.10.2011 10:00 5,8 C 80 % 1099,4 hPa 0,0 mm O 16,4 km/h (3 Bft)
15.10.2011 11:00 6,9 C 75 % 1099,0 hPa 0,0 mm O 16,7 km/h (3 Bft)
15.10.2011 12:00 7,4 C 74 % 1098,3 hPa 0,0 mm O-SO 19,4 km/h (3 Bft)
15.10.2011 13:00 8,7 C 70 % 1097,3 hPa 0,0 mm O 20,0 km/h (4 Bft)
15.10.2011 14:00 9,4 C 64 % 1096,5 hPa 0,0 mm O-SO 17,9 km/h (3 Bft)
15.10.2011 15:00 9,6 C 62 % 1096,1 hPa 0,0 mm O 17,5 km/h (3 Bft)
15.10.2011 16:00 9,4 C 64 % 1096,3 hPa 0,0 mm O-SO 16,6 km/h (3 Bft)
15.10.2011 17:00 8,0 C 70 % 1096,8 hPa 0,0 mm O-SO 12,3 km/h (3 Bft)
15.10.2011 18:00 6,0 C 77 % 1097,6 hPa 0,0 mm SO 9,3 km/h (2 Bft)
15.10.2011 19:00 4,4 C 83 % 1098,1 hPa 0,0 mm SO 5,5 km/h (1 Bft)
15.10.2011 20:00 3,4 C 88 % 1098,4 hPa 0,0 mm O-SO 5,6 km/h (1 Bft)
15.10.2011 21:00 3,4 C 91 % 1098,5 hPa 0,0 mm SO 7,6 km/h (2 Bft)
15.10.2011 22:00 3,5 C 92 % 1098,5 hPa 0,0 mm SO 10,4 km/h (2 Bft)
15.10.2011 23:00 2,3 C 94 % 1098,5 hPa 0,0 mm N 5,7 km/h (1 Bft)
16.10.2011 00:00 1,7 C 95 % 1098,3 hPa 0,0 mm O-SO 3,6 km/h (1 Bft)
16.10.2011 01:00 2,3 C 97 % 1098,1 hPa 0,0 mm S 7,8 km/h (2 Bft)
16.10.2011 02:00 2,6 C 97 % 1097,9 hPa 0,0 mm SO 9,5 km/h (2 Bft)
16.10.2011 03:00 2,3 C 97 % 1097,9 hPa 0,0 mm O-SO 10,1 km/h (2 Bft)
16.10.2011 04:00 2,8 C 100 % 1097,6 hPa 0,0 mm O 13,1 km/h (3 Bft)
16.10.2011 05:00 2,7 C 98 % 1097,8 hPa 0,0 mm O 13,3 km/h (3 Bft)
16.10.2011 06:00 2,6 C 100 % 1097,9 hPa 0,0 mm O-SO 15,0 km/h (3 Bft)
16.10.2011 07:00 2,6 C 98 % 1097,9 hPa 0,0 mm O-SO 15,0 km/h (3 Bft)
16.10.2011 08:00 3,0 C 97 % 1098,0 hPa 0,0 mm O 14,5 km/h (3 Bft)
16.10.2011 09:00 4,2 C 93 % 1097,6 hPa 0,0 mm O 15,8 km/h (3 Bft)
16.10.2011 10:00 6,2 C 86 % 1096,7 hPa 0,0 mm O 20,3 km/h (4 Bft)
16.10.2011 11:00 7,6 C 80 % 1096,1 hPa 0,0 mm O 20,5 km/h (4 Bft)
16.10.2011 12:00 9,0 C 75 % 1095,5 hPa 0,0 mm O 18,9 km/h (3 Bft)
16.10.2011 13:00 10,2 C 71 % 1094,6 hPa 0,0 mm O 18,5 km/h (3 Bft)
16.10.2011 14:00 10,8 C 70 % 1093,7 hPa 0,0 mm O 17,4 km/h (3 Bft)
16.10.2011 15:00 10,8 C 71 % 1093,3 hPa 0,0 mm O-SO 17,1 km/h (3 Bft)
16.10.2011 16:00 10,5 C 72 % 1093,5 hPa 0,0 mm O-NO 13,4 km/h (3 Bft)
16.10.2011 17:00 9,1 C 75 % 1094,0 hPa 0,0 mm O 11,6 km/h (2 Bft)
16.10.2011 18:00 6,5 C 81 % 1094,9 hPa 0,0 mm O 5,8 km/h (2 Bft)
16.10.2011 19:00 4,3 C 88 % 1095,7 hPa 0,0 mm NO 4,8 km/h (1 Bft)
16.10.2011 20:00 3,4 C 92 % 1096,0 hPa 0,0 mm NO 2,3 km/h (1 Bft)
16.10.2011 21:00 3,0 C 95 % 1096,0 hPa 0,0 mm NO 1,6 km/h (1 Bft)
16.10.2011 22:00 2,3 C 96 % 1096,0 hPa 0,0 mm NO 1,1 km/h (1 Bft)
16.10.2011 23:00 1,4 C 97 % 1096,0 hPa 0,0 mm NO 0,6 km/h (0 Bft)
Min-Datum _ 10.10.11 11.10.11 11.10.11 - - 10.10.11
_ Min-Zeit 00:10 15:20 17:10 - - 10:10
Minimum _ -0,5 C 60 % 1084,3 hPa - - 0,0 km/h (0 Bft)
Max-Datum _ 11.10.11 10.10.11 14.10.11 10.10.11 - 12.10.11
_ Max-Zeit 13:55 01:10 23:05 11:10 - 11:45
Maximum _ 21,2 C 100 % 1103,6 hPa 4,2 mm - 34,2 km/h
W (5 Bft)
Durchschnitt _ 8,3 C 89 % 1093,6 hPa #46,8 mm W 9,3 km/h (2 Bft)